Time;durP1;ratioP1;P1;durP2;ratioP2;P2;SDS_P1;SDS_P2;PMS_P1;PMS_P2;Temp;Humidity;BMP_temperature;BMP_pressure;BME280_temperature;BME280_humidity;BME280_pressure;Samples;Min_cycle;Max_cycle;Signal;HPM_P1;HPM_P2
2023/08/23 00:01:03;;;;;;;5.57;1.80;;;17.30;99.90;;;16.73;100.00;101555.94;4143227;28;20056;-75
2023/08/23 00:03:04;;;;;;;2.50;1.52;;;17.30;99.90;;;16.71;100.00;101557.97;4151074;28;20030;-75
2023/08/23 00:05:06;;;;;;;4.15;1.80;;;17.30;99.90;;;16.71;100.00;101565.13;4151169;28;20037;-75
2023/08/23 00:07:07;;;;;;;5.90;2.00;;;17.20;99.90;;;16.69;100.00;101565.31;4146785;28;20094;-75
2023/08/23 00:09:07;;;;;;;4.50;1.85;;;17.20;99.90;;;16.67;100.00;101566.47;4143261;28;20037;-75
2023/08/23 00:11:08;;;;;;;4.10;1.85;;;17.20;99.90;;;16.68;100.00;101553.00;4147766;28;20035;-75
2023/08/23 00:13:09;;;;;;;3.97;2.08;;;17.20;99.90;;;16.66;100.00;101555.03;4145440;28;20030;-75
2023/08/23 00:15:10;;;;;;;4.55;2.03;;;17.20;99.90;;;16.64;100.00;101556.16;4152083;28;20375;-75
2023/08/23 00:17:11;;;;;;;5.22;2.45;;;17.20;99.90;;;16.63;100.00;101552.72;4152121;28;20033;-75
2023/08/23 00:19:12;;;;;;;5.55;2.67;;;17.20;99.90;;;16.63;100.00;101554.53;4150459;28;20076;-75
2023/08/23 00:21:12;;;;;;;6.45;2.80;;;17.10;99.90;;;16.58;100.00;101550.56;4151986;28;20421;-75
2023/08/23 00:23:13;;;;;;;3.88;2.22;;;17.10;99.90;;;16.62;100.00;101547.53;4152029;28;20080;-75
2023/08/23 00:25:14;;;;;;;4.57;2.20;;;17.10;99.90;;;16.59;100.00;101548.72;4152033;28;20030;-75
2023/08/23 00:27:15;;;;;;;4.93;2.70;;;17.10;99.90;;;16.56;100.00;101549.91;4149887;28;20030;-75
2023/08/23 00:29:16;;;;;;;6.47;2.60;;;17.10;99.90;;;16.57;100.00;101548.91;4165574;28;20034;-75
2023/08/23 00:31:17;;;;;;;5.90;2.95;;;17.10;99.90;;;16.57;100.00;101540.91;4133158;28;20413;-75
2023/08/23 00:33:18;;;;;;;3.72;2.53;;;17.10;99.90;;;16.55;100.00;101537.59;4152045;28;20029;-75
2023/08/23 00:35:20;;;;;;;3.55;2.40;;;17.10;99.90;;;16.54;100.00;101541.28;4144736;28;20105;-75
2023/08/23 00:37:20;;;;;;;6.00;2.83;;;17.10;99.90;;;16.56;100.00;101539.25;4151921;28;20053;-75
2023/08/23 00:39:21;;;;;;;5.75;2.83;;;17.10;99.90;;;16.52;100.00;101532.56;4151964;28;20057;-75
2023/08/23 00:41:23;;;;;;;6.88;2.30;;;17.00;99.90;;;16.49;100.00;101519.59;4150566;28;20042;-75
2023/08/23 00:43:24;;;;;;;5.80;2.17;;;17.00;99.90;;;16.48;100.00;101509.16;4145475;28;20022;-75
2023/08/23 00:45:28;;;;;;;5.68;2.63;;;17.00;99.90;;;16.48;100.00;101517.13;4143032;28;20375;-75
2023/08/23 00:47:29;;;;;;;3.70;2.50;;;17.00;99.90;;;16.47;100.00;101513.63;4150809;28;20022;-75
2023/08/23 00:49:34;;;;;;;6.35;2.20;;;17.00;99.90;;;16.49;100.00;101526.75;4134976;28;20510;-75
2023/08/23 00:51:35;;;;;;;5.35;1.95;;;17.00;99.90;;;16.45;100.00;101523.66;4154895;28;20076;-75
2023/08/23 00:53:37;;;;;;;6.40;3.10;;;17.00;99.90;;;16.44;100.00;101519.31;4153927;28;20034;-75
2023/08/23 00:55:39;;;;;;;5.05;2.35;;;17.00;99.90;;;16.42;100.00;101516.00;4153815;28;20033;-75
2023/08/23 00:57:40;;;;;;;4.80;2.40;;;17.00;99.90;;;16.40;100.00;101517.16;4154575;28;20034;-75
2023/08/23 00:59:41;;;;;;;5.90;2.40;;;17.00;99.90;;;16.43;100.00;101522.97;4155048;28;20030;-75
2023/08/23 01:01:42;;;;;;;4.22;2.03;;;16.90;99.90;;;16.38;100.00;101519.19;4149952;28;20033;-75
2023/08/23 01:03:43;;;;;;;8.00;2.28;;;17.00;99.90;;;16.39;100.00;101505.69;4149825;28;20022;-75
2023/08/23 01:06:18;;;;;;;4.75;2.10;;;16.90;99.90;;;16.42;100.00;101508.00;4153633;28;20493;-75
2023/08/23 01:08:46;;;;;;;5.93;2.72;;;16.90;99.90;;;16.36;100.00;101505.22;4143847;28;20030;-75
2023/08/23 01:11:01;;;;;;;5.43;2.20;;;16.90;99.90;;;16.39;100.00;101507.53;4153115;28;20040;-75
2023/08/23 01:13:11;;;;;;;5.13;2.13;;;16.90;99.90;;;16.38;100.00;101504.03;4145372;28;20018;-75
2023/08/23 01:15:13;;;;;;;4.85;2.08;;;16.90;99.90;;;16.24;100.00;101486.16;4145728;28;20486;-75
2023/08/23 01:17:15;;;;;;;7.05;2.35;;;16.90;99.90;;;16.32;100.00;101502.06;4153211;28;20034;-75
2023/08/23 01:19:38;;;;;;;4.13;2.10;;;16.90;99.90;;;16.36;100.00;101500.72;4145020;28;20081;-75
2023/08/23 01:21:43;;;;;;;5.47;2.35;;;16.90;99.90;;;16.31;100.00;101503.06;4154542;28;20026;-75
2023/08/23 01:23:44;;;;;;;7.65;2.45;;;16.90;99.90;;;16.33;100.00;101509.06;4149760;28;20488;-75
2023/08/23 01:25:50;;;;;;;7.28;3.17;;;16.90;99.90;;;16.31;100.00;101511.06;4152123;28;20496;-75
2023/08/23 01:27:51;;;;;;;4.85;2.50;;;16.80;99.90;;;16.31;100.00;101511.06;4147634;28;20030;-75
2023/08/23 01:29:52;;;;;;;6.03;2.63;;;16.80;99.90;;;16.26;100.00;101500.09;4150000;28;20041;-75
2023/08/23 01:32:14;;;;;;;5.63;3.35;;;16.90;99.90;;;16.32;100.00;101503.91;4154735;28;20540;-75
2023/08/23 01:34:32;;;;;;;4.78;2.45;;;16.80;99.90;;;16.27;100.00;101496.44;4151977;28;20109;-75
2023/08/23 01:36:36;;;;;;;8.88;2.63;;;16.80;99.90;;;16.28;100.00;101497.25;4152257;28;20042;-75
2023/08/23 01:38:38;;;;;;;;;;;16.80;99.90;;;16.25;100.00;101506.41;4152182;28;20568;-75
2023/08/23 01:40:40;;;;;;;5.45;2.40;;;16.80;99.90;;;16.22;100.00;101503.31;4153107;28;19971;-75
2023/08/23 01:42:42;;;;;;;10.30;3.08;;;16.80;99.90;;;16.28;100.00;101508.75;4153135;28;20108;-75
2023/08/23 01:44:43;;;;;;;4.88;2.55;;;16.80;99.90;;;16.26;100.00;101502.78;4148094;28;20018;-75
2023/08/23 01:46:44;;;;;;;7.00;2.78;;;16.80;99.90;;;16.27;100.00;101492.94;4135758;28;20029;-75
2023/08/23 01:48:45;;;;;;;5.68;2.67;;;16.80;99.90;;;16.27;100.00;101501.78;4143843;28;20034;-75
2023/08/23 01:50:46;;;;;;;7.47;3.28;;;16.80;99.90;;;16.26;100.00;101501.94;4150325;28;20554;-75
2023/08/23 01:52:46;;;;;;;6.35;2.72;;;16.80;99.90;;;16.26;100.00;101500.09;4142289;28;20109;-75
2023/08/23 01:54:47;;;;;;;7.10;3.05;;;16.80;99.90;;;16.23;100.00;101489.81;4150793;28;20033;-75
2023/08/23 01:56:48;;;;;;;4.15;2.50;;;16.80;99.90;;;16.27;100.00;101479.63;4152897;28;20030;-75
2023/08/23 01:58:49;;;;;;;6.13;2.60;;;16.80;99.90;;;16.24;100.00;101478.16;4146686;28;20402;-75
2023/08/23 02:00:50;;;;;;;5.68;2.83;;;16.80;99.90;;;16.26;100.00;101492.13;4149302;28;20045;-75
2023/08/23 02:02:51;;;;;;;9.43;2.95;;;16.70;99.90;;;16.24;100.00;101475.50;4153107;28;20034;-75
2023/08/23 02:04:51;;;;;;;3.88;2.75;;;16.80;99.90;;;16.23;100.00;101483.66;4138446;28;20030;-75
2023/08/23 02:06:52;;;;;;;6.03;2.50;;;16.70;99.90;;;16.22;100.00;101485.47;4130228;28;20030;-75
2023/08/23 02:08:53;;;;;;;4.47;2.58;;;16.80;99.90;;;16.22;100.00;101487.34;4151031;28;20030;-75
2023/08/23 02:10:54;;;;;;;4.90;2.50;;;16.80;99.90;;;16.21;100.00;101491.81;4140783;28;20018;-75
2023/08/23 02:12:55;;;;;;;5.05;2.35;;;16.70;99.90;;;16.19;100.00;101477.03;4152674;28;20026;-75
2023/08/23 02:14:55;;;;;;;9.32;2.95;;;16.80;99.90;;;16.21;100.00;101483.84;4152100;28;20041;-75
2023/08/23 02:16:56;;;;;;;4.70;2.47;;;16.70;99.90;;;16.18;100.00;101468.22;4143458;28;20038;-75
2023/08/23 02:18:57;;;;;;;5.97;2.78;;;16.70;99.90;;;16.22;100.00;101482.81;4152244;28;20516;-75
2023/08/23 02:20:59;;;;;;;6.40;2.65;;;16.70;99.90;;;16.20;100.00;101468.03;4150252;28;20394;-75
2023/08/23 02:22:59;;;;;;;6.13;2.58;;;16.70;99.90;;;16.18;100.00;101476.19;4146095;28;20109;-75
2023/08/23 02:25:00;;;;;;;3.13;2.33;;;16.70;99.90;;;16.18;100.00;101476.19;4149438;28;20026;-75
2023/08/23 02:27:01;;;;;;;5.28;2.13;;;16.70;99.90;;;16.15;100.00;101457.91;4142847;28;20030;-75
2023/08/23 02:29:03;;;;;;;5.70;3.33;;;16.70;99.90;;;16.16;100.00;101462.22;4151596;28;20045;-75
2023/08/23 02:31:04;;;;;;;6.00;3.03;;;16.70;99.90;;;16.12;100.00;101455.59;4147031;28;20061;-75
2023/08/23 02:33:05;;;;;;;5.75;2.53;;;16.70;99.90;;;16.14;100.00;101468.72;4138487;28;20031;-75
2023/08/23 02:35:06;;;;;;;4.30;2.20;;;16.70;99.90;;;16.13;100.00;101457.22;4145009;28;20061;-75
2023/08/23 02:37:07;;;;;;;2.97;2.28;;;16.70;99.90;;;16.08;100.00;101461.44;4150326;28;20058;-75
2023/08/23 02:39:07;;;;;;;8.20;3.15;;;16.70;99.90;;;16.13;100.00;101462.56;4149507;28;20029;-75
2023/08/23 02:41:08;;;;;;;5.57;3.13;;;16.60;99.90;;;16.11;100.00;101459.25;4148204;28;20034;-75
2023/08/23 02:43:09;;;;;;;6.68;2.90;;;16.60;99.90;;;16.13;100.00;101461.75;4141762;28;20026;-75
2023/08/23 02:45:10;;;;;;;4.95;2.63;;;16.60;99.90;;;16.10;100.00;101448.78;4145548;28;20048;-75
2023/08/23 02:47:11;;;;;;;5.45;2.42;;;16.60;99.90;;;16.10;100.00;101448.78;4152241;28;20034;-75
2023/08/23 02:49:12;;;;;;;7.03;3.08;;;16.70;99.90;;;16.04;100.00;101435.16;4145600;28;20502;-75
2023/08/23 02:51:12;;;;;;;9.63;2.65;;;16.60;99.90;;;16.12;100.00;101439.63;4152203;28;20067;-75
2023/08/23 02:53:13;;;;;;;6.90;3.40;;;16.60;99.90;;;16.11;100.00;101448.59;4150791;28;20026;-75
2023/08/23 02:55:14;;;;;;;4.82;2.53;;;16.60;99.90;;;16.11;100.00;101442.44;4145469;28;20041;-75
2023/08/23 02:57:15;;;;;;;6.03;2.80;;;16.70;99.90;;;16.06;100.00;101429.69;4144118;28;20031;-75
2023/08/23 02:59:16;;;;;;;7.97;3.28;;;16.60;99.90;;;16.11;100.00;101432.63;4138282;28;20485;-75
2023/08/23 03:01:17;;;;;;;5.57;2.95;;;16.60;99.90;;;16.10;100.00;101435.50;4138868;28;20034;-75
2023/08/23 03:03:18;;;;;;;9.55;3.38;;;16.60;99.90;;;16.09;100.00;101433.81;4139596;28;20037;-75
2023/08/23 03:05:19;;;;;;;4.40;2.58;;;16.60;99.90;;;16.07;100.00;101433.97;4147902;28;20409;-75
2023/08/23 03:07:19;;;;;;;6.28;2.67;;;16.60;99.90;;;16.05;100.00;101436.84;4146734;28;20038;-75
2023/08/23 03:09:20;;;;;;;3.58;2.00;;;16.60;99.90;;;16.07;100.00;101441.97;4139840;28;20437;-75
2023/08/23 03:11:21;;;;;;;3.85;2.90;;;16.60;99.90;;;16.06;100.00;101435.00;4143103;28;20022;-75
2023/08/23 03:13:22;;;;;;;4.95;2.42;;;16.60;99.90;;;16.06;100.00;101443.00;4142839;28;20034;-75
2023/08/23 03:15:23;;;;;;;3.80;2.75;;;16.60;99.90;;;16.04;100.00;101448.47;4148830;28;20487;-75
2023/08/23 03:17:24;;;;;;;5.18;3.03;;;16.60;99.90;;;16.05;100.00;101451.97;4151670;28;20030;-74
2023/08/23 03:19:25;;;;;;;3.65;2.47;;;16.60;99.90;;;16.07;100.00;101451.81;4140188;28;20026;-75
2023/08/23 03:21:25;;;;;;;4.82;3.10;;;16.60;99.90;;;16.06;100.00;101448.31;4138886;28;20029;-75
2023/08/23 03:23:26;;;;;;;6.68;2.88;;;16.60;99.90;;;16.02;100.00;101445.16;4140805;28;20521;-75
2023/08/23 03:25:27;;;;;;;4.80;2.60;;;16.60;99.90;;;16.04;100.00;101458.28;4147203;28;20519;-75
2023/08/23 03:27:28;;;;;;;8.20;3.00;;;16.60;99.90;;;16.03;100.00;101456.66;4148613;28;20026;-75
2023/08/23 03:29:29;;;;;;;5.38;2.58;;;16.60;99.90;;;16.03;100.00;101457.47;4139092;28;20034;-75
2023/08/23 03:31:30;;;;;;;5.38;2.53;;;16.60;99.90;;;15.99;100.00;101439.34;4137749;28;20030;-75
2023/08/23 03:33:31;;;;;;;6.65;3.00;;;16.50;99.90;;;16.02;100.00;101449.66;4139148;28;20034;-75
2023/08/23 03:35:32;;;;;;;6.25;2.88;;;16.60;99.90;;;15.99;100.00;101450.00;4152007;28;20074;-75
2023/08/23 03:37:33;;;;;;;5.53;2.85;;;16.50;99.90;;;16.01;100.00;101455.97;4151406;28;20080;-75
2023/08/23 03:39:34;;;;;;;5.45;2.63;;;16.50;99.90;;;15.99;100.00;101450.00;4142650;28;20027;-75
2023/08/23 03:41:35;;;;;;;8.27;2.53;;;16.50;99.90;;;15.95;100.00;101432.72;4153825;28;20503;-75
2023/08/23 03:43:35;;;;;;;4.80;2.72;;;16.50;99.90;;;15.97;100.00;101436.06;4136329;28;20030;-75
2023/08/23 03:45:36;;;;;;;3.83;2.30;;;16.50;99.90;;;15.93;100.00;101424.09;4144198;28;20038;-75
2023/08/23 03:47:37;;;;;;;3.95;2.10;;;16.50;99.90;;;15.96;100.00;101426.41;4151355;28;20405;-75
2023/08/23 03:49:38;;;;;;;4.63;2.45;;;16.50;99.90;;;15.95;100.00;101417.56;4143891;28;20081;-75
2023/08/23 03:51:39;;;;;;;4.95;2.60;;;16.50;99.90;;;15.92;100.00;101411.78;4164675;28;20440;-75
2023/08/23 03:53:40;;;;;;;6.28;2.75;;;16.40;99.90;;;15.93;100.00;101410.78;4136624;28;20037;-75
2023/08/23 03:55:41;;;;;;;6.00;2.53;;;16.40;99.90;;;15.93;100.00;101414.28;4137810;28;20489;-75
2023/08/23 03:57:41;;;;;;;5.85;3.08;;;16.50;99.90;;;15.93;100.00;101424.09;4148963;28;20026;-75
2023/08/23 03:59:42;;;;;;;4.20;2.65;;;16.40;99.90;;;15.89;100.00;101406.78;4138308;28;20026;-75
2023/08/23 04:01:43;;;;;;;6.82;2.63;;;16.50;99.90;;;15.92;100.00;101411.78;4136688;28;20046;-75
2023/08/23 04:03:44;;;;;;;5.35;3.15;;;16.40;99.90;;;15.91;100.00;101410.13;4136842;28;20521;-75
2023/08/23 04:05:45;;;;;;;7.18;3.20;;;16.40;99.90;;;15.91;100.00;101415.47;4148864;28;20034;-77
2023/08/23 04:07:46;;;;;;;7.13;3.20;;;16.40;99.90;;;15.87;100.00;101411.47;4147798;28;20030;-75
2023/08/23 04:09:47;;;;;;;6.97;3.58;;;16.50;99.90;;;15.90;100.00;101411.13;4151168;28;20034;-75
2023/08/23 04:11:47;;;;;;;8.60;3.88;;;16.40;99.90;;;15.89;100.00;101404.97;4143772;28;20038;-75
2023/08/23 04:13:48;;;;;;;5.18;3.30;;;16.40;99.90;;;15.86;100.00;101407.97;4148571;28;20041;-75
2023/08/23 04:15:49;;;;;;;4.45;3.00;;;16.40;99.90;;;15.86;100.00;101407.19;4138109;28;20505;-76
2023/08/23 04:17:50;;;;;;;4.00;2.78;;;16.40;99.90;;;15.90;100.00;101408.47;4141924;28;20478;-75
2023/08/23 04:19:51;;;;;;;6.03;2.90;;;16.40;99.90;;;15.90;100.00;101408.47;4144252;28;20053;-75
2023/08/23 04:21:52;;;;;;;7.40;3.58;;;16.40;99.90;;;15.92;100.00;101409.94;4137257;28;20029;-75
2023/08/23 04:23:52;;;;;;;5.20;2.60;;;16.50;99.90;;;15.96;100.00;101410.44;4140184;28;20026;-75
2023/08/23 04:25:54;;;;;;;7.88;2.83;;;16.50;99.90;;;15.97;100.00;101402.28;4138941;28;20449;-75
2023/08/23 04:27:54;;;;;;;5.18;2.83;;;16.50;99.90;;;16.03;100.00;101409.56;4145010;28;20029;-75
2023/08/23 04:29:55;;;;;;;5.20;2.88;;;16.60;99.90;;;16.07;100.00;101420.66;4140410;28;20390;-75
2023/08/23 04:31:56;;;;;;;4.75;2.75;;;16.60;99.90;;;16.12;100.00;101433.47;4149349;28;20022;-75
2023/08/23 04:33:57;;;;;;;5.40;3.08;;;16.60;99.90;;;16.13;100.00;101430.63;4152170;28;20081;-75
2023/08/23 04:35:58;;;;;;;4.60;2.90;;;16.60;99.90;;;16.14;100.00;101426.97;4139896;28;20026;-75
2023/08/23 04:37:59;;;;;;;6.28;2.42;;;16.70;99.90;;;16.15;100.00;101417.16;4145848;28;20049;-75
2023/08/23 04:39:59;;;;;;;4.28;2.97;;;16.70;99.90;;;16.14;100.00;101418.97;4150654;28;20026;-75
2023/08/23 04:42:00;;;;;;;8.77;3.65;;;16.70;99.90;;;16.14;100.00;101418.16;4148376;28;20034;-75
2023/08/23 04:44:01;;;;;;;3.97;2.58;;;16.60;99.90;;;16.10;100.00;101412.34;4137157;28;20030;-75
2023/08/23 04:46:05;;;;;;;4.47;3.22;;;16.60;99.90;;;16.09;100.00;101404.53;4137086;28;20026;-75
2023/08/23 04:48:06;;;;;;;6.35;2.85;;;16.60;99.90;;;16.03;100.00;101401.59;4149455;28;20037;-75
2023/08/23 04:50:08;;;;;;;5.05;3.20;;;16.60;99.90;;;16.04;100.00;101405.88;4148270;28;20030;-75
2023/08/23 04:52:09;;;;;;;10.75;3.47;;;16.60;99.90;;;16.04;100.00;101405.06;4143822;28;20035;-75
2023/08/23 04:54:10;;;;;;;7.80;3.55;;;16.60;99.90;;;16.03;100.00;101406.91;4137324;28;20417;-75
2023/08/23 04:56:11;;;;;;;3.50;2.75;;;16.60;99.90;;;16.02;100.00;101407.06;4138412;28;20027;-75
2023/08/23 04:58:11;;;;;;;5.80;2.90;;;16.60;99.90;;;16.01;100.00;101397.41;4140244;28;20084;-75
2023/08/23 05:00:13;;;;;;;6.13;3.25;;;16.50;99.90;;;15.97;100.00;101394.31;4152064;28;20029;-75
2023/08/23 05:02:14;;;;;;;6.65;2.90;;;16.50;99.90;;;16.00;100.00;101387.81;4142125;28;20027;-75
2023/08/23 05:04:18;;;;;;;6.57;2.65;;;16.60;99.90;;;16.00;100.00;101385.13;4138060;28;20031;-75
2023/08/23 05:06:19;;;;;;;10.82;2.90;;;16.50;99.90;;;16.04;100.00;101389.09;4149129;28;20053;-75
2023/08/23 05:08:19;;;;;;;6.45;2.58;;;16.50;99.90;;;16.02;100.00;101386.63;4137629;28;20034;-75
2023/08/23 05:10:20;;;;;;;5.45;2.60;;;16.50;99.90;;;16.04;100.00;101395.25;4137028;28;20018;-75
2023/08/23 05:12:21;;;;;;;5.28;2.67;;;16.50;99.90;;;16.04;100.00;101392.59;4136890;28;20034;-75
2023/08/23 05:14:22;;;;;;;9.82;3.75;;;16.50;99.90;;;16.02;100.00;101391.09;4137305;28;20035;-75
2023/08/23 05:16:23;;;;;;;10.73;2.80;;;16.60;99.90;;;16.00;100.00;101383.31;4142496;28;20028;-75
2023/08/23 05:18:24;;;;;;;6.53;2.88;;;16.60;99.90;;;16.02;100.00;101394.59;4138776;28;20058;-75
2023/08/23 05:20:25;;;;;;;8.10;3.05;;;16.60;99.90;;;16.00;100.00;101393.97;4138423;28;20402;-75
2023/08/23 05:22:26;;;;;;;5.30;2.92;;;16.60;99.90;;;16.03;100.00;101404.25;4139353;28;20062;-75
2023/08/23 05:24:27;;;;;;;7.15;3.15;;;16.60;99.90;;;16.02;100.00;101391.09;4144308;28;20027;-75
2023/08/23 05:26:28;;;;;;;7.43;2.63;;;16.60;99.90;;;15.98;100.00;101379.97;4152238;28;20560;-75
2023/08/23 05:28:29;;;;;;;8.80;3.45;;;16.60;99.90;;;16.02;100.00;101383.13;4138218;28;20034;-75
2023/08/23 05:30:32;;;;;;;4.53;2.90;;;16.60;99.90;;;16.06;100.00;101384.44;4134896;28;20030;-75
2023/08/23 05:32:33;;;;;;;5.35;3.17;;;16.60;99.90;;;16.11;100.00;101376.75;4140876;28;20021;-75
2023/08/23 05:34:34;;;;;;;5.43;2.63;;;16.60;99.90;;;16.12;100.00;101370.44;4152057;28;20022;-75
2023/08/23 05:36:35;;;;;;;5.05;3.15;;;16.70;99.90;;;16.17;100.00;101356.56;4134611;28;20034;-75
2023/08/23 05:38:36;;;;;;;6.70;2.70;;;16.70;99.90;;;16.24;100.00;101363.69;4137088;28;20049;-75
2023/08/23 05:40:38;;;;;;;7.10;2.53;;;16.70;99.90;;;16.27;100.00;101376.66;4144622;28;20036;-75
2023/08/23 05:42:39;;;;;;;9.00;3.42;;;16.80;99.90;;;16.34;100.00;101388.22;4153063;28;20138;-75
2023/08/23 05:44:40;;;;;;;5.68;2.78;;;16.80;99.90;;;16.39;100.00;101390.38;4150211;28;20034;-76
2023/08/23 05:46:41;;;;;;;8.32;2.70;;;16.90;99.90;;;16.36;100.00;101383.56;4140397;28;20038;-75
2023/08/23 05:48:41;;;;;;;11.18;3.08;;;16.90;99.90;;;16.49;100.00;101389.09;4144722;28;20037;-76
2023/08/23 05:50:43;;;;;;;5.97;2.83;;;17.00;99.90;;;16.51;100.00;101389.78;4150610;28;20029;-76
2023/08/23 05:52:43;;;;;;;7.88;2.92;;;17.10;99.90;;;16.61;100.00;101412.72;4153256;28;20017;-76
2023/08/23 05:54:44;;;;;;;5.30;2.50;;;17.10;99.90;;;16.65;100.00;101408.66;4152555;28;20382;-76
2023/08/23 05:56:45;;;;;;;7.32;3.28;;;17.20;99.90;;;16.72;100.00;101409.63;4143315;28;20022;-76
2023/08/23 05:58:46;;;;;;;3.28;2.30;;;17.20;99.90;;;16.74;100.00;101410.25;4149304;28;20030;-76
2023/08/23 06:00:48;;;;;;;5.55;2.60;;;17.30;99.90;;;16.78;100.00;101399.06;4154284;28;20088;-76
2023/08/23 06:02:49;;;;;;;4.78;2.15;;;17.30;99.90;;;16.82;100.00;101389.69;4151109;28;20149;-76
2023/08/23 06:04:50;;;;;;;7.05;2.78;;;17.30;99.90;;;16.81;100.00;101390.72;4152958;28;20042;-77
2023/08/23 06:06:51;;;;;;;3.53;2.50;;;17.40;99.90;;;16.90;100.00;101407.44;4149903;28;20481;-77
2023/08/23 06:08:51;;;;;;;5.15;2.35;;;17.40;99.90;;;16.90;100.00;101402.13;4154216;28;20022;-76
2023/08/23 06:10:53;;;;;;;3.45;2.20;;;17.50;99.90;;;17.00;100.00;101402.66;4152777;28;20072;-76
2023/08/23 06:12:53;;;;;;;4.03;2.42;;;17.50;99.90;;;17.08;100.00;101406.09;4147611;28;20021;-76
2023/08/23 06:14:57;;;;;;;4.63;2.25;;;17.60;99.90;;;17.19;100.00;101412.00;4139213;28;20409;-76
2023/08/23 06:16:58;;;;;;;3.25;1.90;;;17.70;99.90;;;17.24;100.00;101405.09;4140687;28;20478;-76
2023/08/23 06:18:59;;;;;;;6.35;2.35;;;17.70;99.90;;;17.31;100.00;101413.19;4141499;28;20038;-76
2023/08/23 06:21:00;;;;;;;3.10;1.92;;;17.80;99.90;;;17.39;100.00;101429.94;4139519;28;20026;-76
2023/08/23 06:23:00;;;;;;;3.53;1.92;;;17.90;99.90;;;17.43;100.00;101430.41;4139793;28;20524;-76
2023/08/23 06:25:01;;;;;;;2.08;1.70;;;18.00;99.90;;;17.52;100.00;101438.13;4140175;28;20033;-76
2023/08/23 06:27:02;;;;;;;2.20;1.45;;;18.00;99.90;;;17.60;100.00;101447.91;4143071;28;20030;-76
2023/08/23 06:29:03;;;;;;;3.78;2.20;;;18.10;99.90;;;17.67;100.00;101455.00;4141920;28;20049;-76
2023/08/23 06:31:04;;;;;;;4.47;1.92;;;18.10;99.90;;;17.67;100.00;101465.66;4147300;28;20092;-76
2023/08/23 06:33:05;;;;;;;3.60;1.88;;;18.20;99.90;;;17.67;100.00;101454.16;4148105;28;20026;-76
2023/08/23 06:35:07;;;;;;;4.43;1.80;;;18.20;99.90;;;17.75;100.00;101448.72;4150941;28;20058;-76
2023/08/23 06:37:07;;;;;;;3.00;2.05;;;18.20;99.90;;;17.80;100.00;101448.19;4150260;28;20042;-76
2023/08/23 06:39:10;;;;;;;3.60;1.77;;;18.30;99.90;;;17.84;100.00;101465.44;4144728;28;20057;-76
2023/08/23 06:41:11;;;;;;;4.10;2.30;;;18.30;99.90;;;17.89;100.00;101463.06;4143757;28;20038;-76
2023/08/23 06:43:18;;;;;;;4.50;2.00;;;18.40;99.90;;;17.99;100.00;101476.94;4150628;28;20077;-77
2023/08/23 06:45:19;;;;;;;3.22;2.10;;;18.40;99.90;;;18.03;100.00;101470.22;4149551;28;20037;-76
2023/08/23 06:47:20;;;;;;;2.70;1.85;;;18.50;99.90;;;18.10;100.00;101481.78;4146146;28;20026;-77
2023/08/23 06:49:21;;;;;;;2.65;1.60;;;18.50;99.90;;;18.15;100.00;101484.75;4150928;28;20060;-76
2023/08/23 06:51:23;;;;;;;3.50;1.13;;;18.60;99.90;;;18.23;100.00;101495.31;4151886;28;20486;-81
2023/08/23 06:53:24;;;;;;;2.95;2.00;;;18.70;99.90;;;18.23;100.00;101481.97;4141995;28;20441;-83
2023/08/23 06:55:27;;;;;;;5.13;2.15;;;18.70;99.90;;;18.36;100.00;101478.63;4146204;28;20026;-83
2023/08/23 06:57:30;;;;;;;5.35;2.20;;;18.80;99.90;;;18.42;100.00;101470.69;4146232;28;20092;-83
2023/08/23 06:59:31;;;;;;;4.45;2.30;;;18.90;99.90;;;18.53;100.00;101478.22;4150114;28;20038;-84
2023/08/23 07:01:32;;;;;;;4.03;2.08;;;19.00;99.90;;;18.64;100.00;101500.94;4152193;28;20038;-83
2023/08/23 07:03:33;;;;;;;4.22;2.20;;;19.10;99.90;;;18.62;100.00;101494.97;4145979;28;20022;-78
2023/08/23 07:05:34;;;;;;;6.50;2.45;;;19.10;99.90;;;18.70;100.00;101489.47;4148993;28;20065;-84
2023/08/23 07:07:35;;;;;;;6.07;2.20;;;19.20;99.90;;;18.71;100.00;101488.47;4147869;28;20401;-84
2023/08/23 07:09:37;;;;;;;5.45;2.83;;;19.30;99.90;;;18.72;100.00;101493.66;4151380;28;20049;-83
2023/08/23 07:11:38;;;;;;;7.72;1.88;;;19.30;99.90;;;18.75;100.00;101482.56;4149990;28;20053;-81
2023/08/23 07:13:39;;;;;;;7.93;2.53;;;19.30;99.90;;;18.94;100.00;101488.25;4144885;28;20093;-80
2023/08/23 07:15:40;;;;;;;4.55;2.00;;;19.40;99.90;;;19.11;100.00;101487.81;4151159;28;20029;-80
2023/08/23 07:17:41;;;;;;;2.92;2.00;;;19.50;99.90;;;19.07;100.00;101472.34;4145547;28;20065;-80
2023/08/23 07:19:42;;;;;;;5.93;1.88;;;19.60;99.90;;;19.13;100.00;101476.91;4149920;28;20080;-89
2023/08/23 07:21:43;;;;;;;6.18;2.80;;;19.70;99.90;;;19.18;100.00;101464.59;4134553;28;20088;-76
2023/08/23 07:23:44;;;;;;;3.88;1.60;;;19.70;99.90;;;19.20;100.00;101470.59;4139823;28;20417;-76
2023/08/23 07:25:44;;;;;;;3.38;1.75;;;19.70;99.90;;;19.29;100.00;101469.41;4149245;28;20026;-76
2023/08/23 07:27:45;;;;;;;4.22;1.98;;;19.80;99.90;;;19.38;100.00;101458.59;4144514;28;20018;-76
2023/08/23 07:29:46;;;;;;;2.03;1.75;;;19.80;99.90;;;19.46;100.00;101459.28;4142370;28;20034;-76
2023/08/23 07:31:47;;;;;;;4.93;2.08;;;19.90;99.90;;;19.52;100.00;101466.53;4148944;28;20534;-76
2023/08/23 07:33:48;;;;;;;3.20;1.55;;;20.00;99.90;;;19.59;100.00;101475.41;4152881;28;20053;-76
2023/08/23 07:36:00;;;;;;;3.17;2.08;;;20.00;99.90;;;19.52;100.00;101469.22;4151641;28;20050;-76
2023/08/23 07:38:02;;;;;;;7.03;2.10;;;20.00;99.90;;;19.69;100.00;101469.69;4140360;28;20101;-76
2023/08/23 07:40:04;;;;;;;2.42;1.40;;;20.10;99.90;;;19.80;100.00;101472.63;4150046;28;20117;-76
2023/08/23 07:42:05;;;;;;;3.00;1.30;;;20.30;99.90;;;19.88;100.00;101469.81;4147814;28;20026;-76
2023/08/23 07:44:06;;;;;;;2.53;1.20;;;20.30;99.90;;;20.09;100.00;101476.06;4143878;28;20473;-76
2023/08/23 07:46:07;;;;;;;6.15;2.20;;;20.50;99.90;;;20.13;100.00;101478.13;4141402;28;20034;-76
2023/08/23 07:48:08;;;;;;;3.08;1.40;;;20.60;99.90;;;20.21;100.00;101463.75;4136243;28;20509;-76
2023/08/23 07:50:09;;;;;;;2.78;1.65;;;20.60;99.90;;;20.25;100.00;101457.81;4142892;28;20030;-76
2023/08/23 07:52:10;;;;;;;3.35;1.40;;;20.70;99.90;;;20.34;100.00;101453.09;4159843;28;20490;-76
2023/08/23 07:54:11;;;;;;;2.92;1.58;;;20.70;99.90;;;20.33;100.00;101446.09;4136880;28;20038;-76
2023/08/23 07:56:12;;;;;;;2.75;1.42;;;20.70;99.90;;;20.34;100.00;101445.88;4137081;28;20022;-76
2023/08/23 07:58:14;;;;;;;2.78;1.60;;;20.80;99.90;;;20.24;100.00;101445.44;4136530;28;20073;-76
2023/08/23 08:00:17;;;;;;;3.83;1.52;;;20.80;99.90;;;20.16;100.00;101450.16;4143254;28;20033;-76
2023/08/23 08:02:18;;;;;;;3.38;1.45;;;20.70;99.90;;;20.21;100.00;101442.31;4140067;28;20494;-76
2023/08/23 08:04:19;;;;;;;3.13;1.52;;;20.70;99.90;;;20.27;100.00;101442.38;4137136;28;20029;-76
2023/08/23 08:06:20;;;;;;;6.28;1.98;;;20.70;99.90;;;20.29;100.00;101439.47;4137022;28;20027;-76
2023/08/23 08:08:20;;;;;;;2.60;1.30;;;20.80;99.90;;;20.38;100.00;101430.22;4150289;28;20080;-76
2023/08/23 08:10:22;;;;;;;3.95;1.60;;;20.80;99.90;;;20.46;100.00;101430.03;4141523;28;20022;-76
2023/08/23 08:12:23;;;;;;;3.05;1.27;;;20.80;99.90;;;20.47;100.00;101420.97;4137554;28;20022;-76
2023/08/23 08:14:24;;;;;;;3.30;1.45;;;20.80;99.90;;;20.38;100.00;101414.97;4140351;28;20041;-76
2023/08/23 08:16:24;;;;;;;3.95;1.27;;;20.80;99.90;;;20.40;100.00;101412.91;4151192;28;20022;-76
2023/08/23 08:18:25;;;;;;;4.35;1.50;;;20.80;99.90;;;20.28;100.00;101416.41;4136033;28;20453;-76
2023/08/23 08:20:26;;;;;;;3.65;1.38;;;20.80;99.90;;;20.28;100.00;101411.06;4153055;28;20033;-76